createdAt,value
2023-04-18T00:00:34.455Z,100222.38
2023-04-18T00:01:38.754Z,100221.49
2023-04-18T00:02:43.220Z,100214.60
2023-04-18T00:03:46.751Z,100217.25
2023-04-18T00:04:49.881Z,100217.20
2023-04-18T00:05:52.795Z,100221.49
2023-04-18T00:06:55.439Z,100218.09
2023-04-18T00:07:58.102Z,100214.71
2023-04-18T00:09:00.759Z,100212.14
2023-04-18T00:10:05.238Z,100214.71
2023-04-18T00:11:07.719Z,100210.41
2023-04-18T00:12:10.736Z,100211.25
2023-04-18T00:13:13.078Z,100214.81
2023-04-18T00:14:16.095Z,100211.33
2023-04-18T00:15:18.514Z,100214.86
2023-04-18T00:16:23.339Z,100213.01
2023-04-18T00:17:27.739Z,100210.41
2023-04-18T00:18:30.294Z,100212.14
2023-04-18T00:19:34.240Z,100212.12
2023-04-18T00:20:38.396Z,100211.23
2023-04-18T00:21:42.578Z,100206.04
2023-04-18T00:22:46.064Z,100208.70
2023-04-18T00:23:48.339Z,100211.25
2023-04-18T00:24:51.772Z,100212.88
2023-04-18T00:25:54.425Z,100212.83
2023-04-18T00:26:57.044Z,100218.19
2023-04-18T00:27:59.809Z,100213.16
2023-04-18T00:29:03.506Z,100209.67
2023-04-18T00:30:07.834Z,100211.33
2023-04-18T00:31:12.025Z,100206.87
2023-04-18T00:32:14.443Z,100213.05
2023-04-18T00:33:17.655Z,100219.92
2023-04-18T00:34:20.507Z,100210.47
2023-04-18T00:35:23.203Z,100213.05
2023-04-18T00:36:26.440Z,100213.05
2023-04-18T00:37:29.197Z,100214.86
2023-04-18T00:38:31.944Z,100207.86
2023-04-18T00:39:36.993Z,100208.80
2023-04-18T00:40:40.812Z,100204.56
2023-04-18T00:41:43.168Z,100209.75
2023-04-18T00:42:45.269Z,100211.45
2023-04-18T00:43:49.890Z,100207.20
2023-04-18T00:44:52.110Z,100216.71
2023-04-18T00:46:00.350Z,100218.52
2023-04-18T00:47:03.011Z,100210.77
2023-04-18T00:48:06.158Z,100208.28
2023-04-18T00:49:09.152Z,100205.58
2023-04-18T00:50:12.879Z,100208.23
2023-04-18T00:51:17.127Z,100213.52
2023-04-18T00:52:20.075Z,100208.41
2023-04-18T00:53:22.482Z,100206.75
2023-04-18T00:54:26.840Z,100206.04
2023-04-18T00:55:30.626Z,100205.28
2023-04-18T00:56:34.823Z,100199.22
2023-04-18T00:57:37.729Z,100212.23
2023-04-18T00:58:41.501Z,100208.83
2023-04-18T00:59:45.827Z,100200.09
2023-04-18T01:00:48.644Z,100205.17
2023-04-18T01:01:51.480Z,100200.09
2023-04-18T01:02:54.943Z,100199.27
2023-04-18T01:03:57.754Z,100208.66
2023-04-18T01:05:01.199Z,100204.52
2023-04-18T01:06:04.745Z,100202.70
2023-04-18T01:07:09.113Z,100204.46
2023-04-18T01:08:12.036Z,100208.75
2023-04-18T01:09:15.497Z,100203.47
2023-04-18T01:10:18.493Z,100204.28
2023-04-18T01:11:20.901Z,100208.58
2023-04-18T01:12:23.368Z,100203.39
2023-04-18T01:13:25.768Z,100205.10
2023-04-18T01:14:28.663Z,100206.80
2023-04-18T01:15:30.832Z,100199.91
2023-04-18T01:16:34.009Z,100206.87
2023-04-18T01:17:40.020Z,100206.87
2023-04-18T01:18:43.881Z,100213.22
2023-04-18T01:19:46.331Z,100210.75
2023-04-18T01:20:51.872Z,100211.69
2023-04-18T01:21:55.163Z,100210.77
2023-04-18T01:23:00.190Z,100207.30
2023-04-18T01:24:11.525Z,100203.00
2023-04-18T01:25:18.199Z,100213.41
2023-04-18T01:26:21.479Z,100200.41
2023-04-18T01:27:23.746Z,100201.33
2023-04-18T01:28:27.088Z,100209.27
2023-04-18T01:29:31.773Z,100205.93
2023-04-18T01:30:34.610Z,100201.64
2023-04-18T01:31:38.283Z,100209.41
2023-04-18T01:32:40.795Z,100202.72
2023-04-18T01:33:43.302Z,100205.27
2023-04-18T01:34:45.431Z,100208.69
2023-04-18T01:35:47.975Z,100202.72
2023-04-18T01:36:50.313Z,100200.08
2023-04-18T01:37:52.770Z,100206.03
2023-04-18T01:38:55.813Z,100202.45
2023-04-18T01:39:59.507Z,100205.05
2023-04-18T01:41:02.468Z,100201.57
2023-04-18T01:42:05.170Z,100198.04
2023-04-18T01:43:07.625Z,100201.52
2023-04-18T01:44:12.091Z,100202.45
2023-04-18T01:45:16.517Z,100199.81
2023-04-18T01:46:19.192Z,100205.05
2023-04-18T01:47:21.589Z,100198.09
2023-04-18T01:48:24.554Z,100199.05
2023-04-18T01:49:27.050Z,100205.93
2023-04-18T01:50:29.990Z,100202.41
2023-04-18T01:51:32.332Z,100198.14
2023-04-18T01:52:34.675Z,100200.68
2023-04-18T01:53:36.830Z,100197.38
2023-04-18T01:54:39.083Z,100204.38
2023-04-18T01:55:41.543Z,100206.10
2023-04-18T01:56:43.983Z,100194.85
2023-04-18T01:57:46.312Z,100206.03
2023-04-18T01:58:48.630Z,100200.75
2023-04-18T01:59:51.202Z,100198.16
2023-04-18T02:00:56.843Z,100199.86
2023-04-18T02:01:59.265Z,100197.20
2023-04-18T02:03:02.401Z,100189.55
2023-04-18T02:04:05.333Z,100196.45
2023-04-18T02:05:08.563Z,100192.19
2023-04-18T02:06:13.396Z,100196.50
2023-04-18T02:07:16.131Z,100195.57
2023-04-18T02:08:18.438Z,100192.98
2023-04-18T02:09:20.651Z,100196.38
2023-04-18T02:10:24.015Z,100192.91
2023-04-18T02:11:26.327Z,100200.75
2023-04-18T02:12:28.638Z,100195.57
2023-04-18T02:13:31.289Z,100199.86
2023-04-18T02:14:35.824Z,100192.09
2023-04-18T02:15:38.971Z,100192.09
2023-04-18T02:16:41.455Z,100186.09
2023-04-18T02:17:44.919Z,100204.33
2023-04-18T02:18:47.626Z,100191.44
2023-04-18T02:19:52.914Z,100191.55
2023-04-18T02:20:55.444Z,100188.85
2023-04-18T02:21:58.097Z,100190.51
2023-04-18T02:23:01.228Z,100191.49
2023-04-18T02:24:05.409Z,100186.41
2023-04-18T02:25:08.409Z,100195.84
2023-04-18T02:26:12.293Z,100189.02
2023-04-18T02:27:14.688Z,100199.31
2023-04-18T02:28:17.767Z,100196.80
2023-04-18T02:29:20.457Z,100190.72
2023-04-18T02:30:24.102Z,100196.72
2023-04-18T02:31:26.660Z,100191.55
2023-04-18T02:32:28.867Z,100195.79
2023-04-18T02:33:31.287Z,100198.43
2023-04-18T02:34:33.636Z,100184.61
2023-04-18T02:35:37.881Z,100195.84
2023-04-18T02:36:40.305Z,100195.07
2023-04-18T02:37:42.736Z,100189.91
2023-04-18T02:38:47.026Z,100190.95
2023-04-18T02:39:51.666Z,100190.12
2023-04-18T02:40:55.548Z,100191.88
2023-04-18T02:41:58.199Z,100191.73
2023-04-18T02:43:02.076Z,100194.25
2023-04-18T02:44:06.580Z,100197.84
2023-04-18T02:45:12.080Z,100186.59
2023-04-18T02:46:15.498Z,100193.59
2023-04-18T02:47:18.518Z,100192.92
2023-04-18T02:48:22.886Z,100192.87
2023-04-18T02:49:25.540Z,100189.45
2023-04-18T02:50:28.882Z,100192.83
2023-04-18T02:51:33.349Z,100190.12
2023-04-18T02:52:37.353Z,100190.94
2023-04-18T02:53:41.738Z,100194.47
2023-04-18T02:54:44.636Z,100191.78
2023-04-18T02:55:48.917Z,100190.89
2023-04-18T02:56:53.815Z,100189.19
2023-04-18T02:58:16.242Z,100196.91
2023-04-18T02:59:20.444Z,100189.12
2023-04-18T03:00:39.833Z,100192.50
2023-04-18T03:01:46.596Z,100194.20
2023-04-18T03:02:52.521Z,100192.59
2023-04-18T03:04:02.742Z,100190.83
2023-04-18T03:05:09.848Z,100189.95
2023-04-18T03:06:12.606Z,100192.50
2023-04-18T03:07:15.767Z,100192.43
2023-04-18T03:08:18.723Z,100195.84
2023-04-18T03:09:21.638Z,100194.90
2023-04-18T03:10:25.926Z,100187.25
2023-04-18T03:11:29.001Z,100190.67
2023-04-18T03:12:31.901Z,100192.36
2023-04-18T03:13:35.436Z,100186.31
2023-04-18T03:14:38.553Z,100189.79
2023-04-18T03:15:41.231Z,100188.13
2023-04-18T03:16:44.608Z,100187.30
2023-04-18T03:17:50.059Z,100189.91
2023-04-18T03:18:53.111Z,100184.70
2023-04-18T03:19:56.244Z,100185.55
2023-04-18T03:20:59.085Z,100189.84
2023-04-18T03:22:01.938Z,100189.02
2023-04-18T03:23:06.355Z,100201.95
2023-04-18T03:24:12.090Z,100195.09
2023-04-18T03:25:14.866Z,100192.43
2023-04-18T03:26:24.000Z,100189.02
2023-04-18T03:27:27.979Z,100194.20
2023-04-18T03:28:30.471Z,100196.00
2023-04-18T03:29:33.927Z,100199.31
2023-04-18T03:30:37.068Z,100196.67
2023-04-18T03:31:40.899Z,100201.78
2023-04-18T03:32:43.699Z,100198.28
2023-04-18T03:33:46.521Z,100195.67
2023-04-18T03:34:50.993Z,100204.33
2023-04-18T03:35:53.604Z,100202.55
2023-04-18T03:36:55.941Z,100203.46
2023-04-18T03:37:58.918Z,100207.08
2023-04-18T03:39:03.144Z,100206.20
2023-04-18T03:40:06.590Z,100200.92
2023-04-18T03:41:09.078Z,100206.87
2023-04-18T03:42:12.465Z,100202.45
2023-04-18T03:43:19.857Z,100205.93
2023-04-18T03:44:23.362Z,100203.34
2023-04-18T03:45:26.651Z,100205.00
2023-04-18T03:46:29.516Z,100198.21
2023-04-18T03:47:33.659Z,100201.02
2023-04-18T03:48:36.746Z,100205.38
2023-04-18T03:49:41.923Z,100200.27
2023-04-18T03:50:44.536Z,100198.59
2023-04-18T03:51:47.378Z,100205.43
2023-04-18T03:52:50.408Z,100201.25
2023-04-18T03:53:54.333Z,100197.77
2023-04-18T03:55:00.677Z,100190.05
2023-04-18T03:56:05.336Z,100197.77
2023-04-18T03:57:19.111Z,100194.30
2023-04-18T03:58:23.237Z,100200.25
2023-04-18T03:59:26.365Z,100197.67
2023-04-18T04:00:30.182Z,100201.09
2023-04-18T04:01:34.903Z,100201.03
2023-04-18T04:02:37.824Z,100199.38
2023-04-18T04:03:40.753Z,100200.27
2023-04-18T04:04:44.703Z,100204.49
2023-04-18T04:05:47.546Z,100202.72
2023-04-18T04:06:51.163Z,100197.44
2023-04-18T04:07:54.510Z,100203.32
2023-04-18T04:08:57.481Z,100198.16
2023-04-18T04:10:00.814Z,100198.14
2023-04-18T04:11:04.092Z,100198.98
2023-04-18T04:12:06.721Z,100198.98
2023-04-18T04:13:09.516Z,100202.45
2023-04-18T04:14:13.858Z,100200.85
2023-04-18T04:15:18.874Z,100199.05
2023-04-18T04:16:29.598Z,100199.05
2023-04-18T04:17:32.067Z,100204.09
2023-04-18T04:18:34.894Z,100204.09
2023-04-18T04:19:37.684Z,100203.98
2023-04-18T04:20:41.840Z,100197.92
2023-04-18T04:21:46.123Z,100199.58
2023-04-18T04:22:51.853Z,100199.80
2023-04-18T04:23:55.757Z,100198.14
2023-04-18T04:25:03.970Z,100194.56
2023-04-18T04:26:09.553Z,100203.16
2023-04-18T04:27:14.760Z,100198.75
2023-04-18T04:28:18.127Z,100197.03
2023-04-18T04:29:26.848Z,100196.93
2023-04-18T04:30:30.001Z,100199.52
2023-04-18T04:31:32.865Z,100197.03
2023-04-18T04:32:35.835Z,100187.44
2023-04-18T04:33:38.957Z,100194.32
2023-04-18T04:34:43.411Z,100202.92
2023-04-18T04:35:47.538Z,100197.67
2023-04-18T04:36:51.710Z,100190.66
2023-04-18T04:37:54.152Z,100190.66
2023-04-18T04:38:58.594Z,100191.45
2023-04-18T04:40:08.678Z,100192.21
2023-04-18T04:41:12.960Z,100192.92
2023-04-18T04:42:15.321Z,100193.73
2023-04-18T04:43:20.068Z,100197.96
2023-04-18T04:44:24.997Z,100187.59
2023-04-18T04:45:28.536Z,100195.13
2023-04-18T04:46:31.770Z,100197.67
2023-04-18T04:47:35.870Z,100190.78
2023-04-18T04:48:38.623Z,100196.13
2023-04-18T04:49:41.200Z,100197.02
2023-04-18T04:50:48.191Z,100192.67
2023-04-18T04:51:50.917Z,100203.86
2023-04-18T04:52:53.368Z,100198.62
2023-04-18T04:53:55.908Z,100204.56
2023-04-18T04:54:58.520Z,100209.67
2023-04-18T04:56:01.431Z,100199.23
2023-04-18T04:57:04.573Z,100212.14
2023-04-18T04:58:07.450Z,100205.23
2023-04-18T04:59:14.327Z,100215.66
2023-04-18T05:00:20.406Z,100218.19
2023-04-18T05:01:23.392Z,100216.41
2023-04-18T05:02:26.025Z,100214.53
2023-04-18T05:03:28.724Z,100216.06
2023-04-18T05:04:33.122Z,100213.71
2023-04-18T05:05:36.180Z,100218.90
2023-04-18T05:06:40.249Z,100220.66
2023-04-18T05:07:43.901Z,100226.61
2023-04-18T05:08:48.356Z,100220.42
2023-04-18T05:09:52.450Z,100215.94
2023-04-18T05:10:55.657Z,100215.94
2023-04-18T05:11:58.049Z,100219.16
2023-04-18T05:13:00.811Z,100224.08
2023-04-18T05:14:03.467Z,100222.10
2023-04-18T05:15:07.480Z,100225.39
2023-04-18T05:16:11.132Z,100214.01
2023-04-18T05:17:13.405Z,100220.70
2023-04-18T05:18:16.839Z,100218.80
2023-04-18T05:19:19.118Z,100216.96
2023-04-18T05:20:22.194Z,100217.52
2023-04-18T05:21:25.479Z,100226.80
2023-04-18T05:22:28.093Z,100226.59
2023-04-18T05:23:30.224Z,100219.38
2023-04-18T05:24:32.742Z,100221.05
2023-04-18T05:25:36.165Z,100216.52
2023-04-18T05:26:39.289Z,100229.11
2023-04-18T05:27:42.774Z,100228.91
2023-04-18T05:28:45.717Z,100226.99
2023-04-18T05:29:50.073Z,100230.31
2023-04-18T05:30:53.708Z,100219.11
2023-04-18T05:31:56.176Z,100220.69
2023-04-18T05:32:58.446Z,100223.20
2023-04-18T05:34:01.028Z,100220.69
2023-04-18T05:35:04.311Z,100221.41
2023-04-18T05:36:07.486Z,100224.01
2023-04-18T05:37:10.305Z,100214.14
2023-04-18T05:38:12.352Z,100224.57
2023-04-18T05:39:14.898Z,100217.48
2023-04-18T05:40:17.606Z,100227.69
2023-04-18T05:41:19.927Z,100222.31
2023-04-18T05:42:22.404Z,100224.63
2023-04-18T05:43:24.856Z,100222.99
2023-04-18T05:44:27.933Z,100219.27
2023-04-18T05:45:30.441Z,100222.45
2023-04-18T05:46:33.214Z,100223.06
2023-04-18T05:47:35.567Z,100222.84
2023-04-18T05:48:37.876Z,100218.21
2023-04-18T05:49:41.020Z,100221.61
2023-04-18T05:50:45.592Z,100219.91
2023-04-18T05:51:52.292Z,100218.14
2023-04-18T05:52:54.945Z,100216.25
2023-04-18T05:53:57.468Z,100223.28
2023-04-18T05:55:00.240Z,100220.98
2023-04-18T05:56:03.128Z,100219.24
2023-04-18T05:57:05.896Z,100223.64
2023-04-18T05:58:08.137Z,100211.77
2023-04-18T05:59:10.723Z,100211.77
2023-04-18T06:00:14.790Z,100218.44
2023-04-18T06:01:20.868Z,100221.88
2023-04-18T06:02:23.420Z,100213.91
2023-04-18T06:03:27.060Z,100217.93
2023-04-18T06:04:30.994Z,100222.23
2023-04-18T06:05:33.476Z,100224.54
2023-04-18T06:06:36.672Z,100218.38
2023-04-18T06:07:39.149Z,100225.34
2023-04-18T06:08:41.488Z,100220.91
2023-04-18T06:09:43.522Z,100221.84
2023-04-18T06:10:45.751Z,100220.61
2023-04-18T06:11:47.897Z,100213.71
2023-04-18T06:12:50.788Z,100217.21
2023-04-18T06:13:54.881Z,100215.31
2023-04-18T06:14:57.296Z,100218.69
2023-04-18T06:16:01.646Z,100215.18
2023-04-18T06:17:06.457Z,100221.02
2023-04-18T06:18:09.089Z,100220.65
2023-04-18T06:19:11.419Z,100215.65
2023-04-18T06:20:14.191Z,100222.11
2023-04-18T06:21:16.932Z,100218.37
2023-04-18T06:22:19.551Z,100215.53
2023-04-18T06:23:21.791Z,100210.77
2023-04-18T06:24:24.426Z,100214.86
2023-04-18T06:25:27.277Z,100213.16
2023-04-18T06:26:31.365Z,100208.47
2023-04-18T06:27:33.856Z,100218.38
2023-04-18T06:28:36.103Z,100214.91
2023-04-18T06:29:40.436Z,100217.00
2023-04-18T06:30:42.809Z,100214.01
2023-04-18T06:31:46.093Z,100218.97
2023-04-18T06:32:48.620Z,100215.38
2023-04-18T06:33:51.333Z,100215.02
2023-04-18T06:34:53.686Z,100216.91
2023-04-18T06:35:56.576Z,100219.25
2023-04-18T06:36:59.252Z,100218.34
2023-04-18T06:38:01.434Z,100226.16
2023-04-18T06:39:05.769Z,100219.50
2023-04-18T06:40:10.662Z,100224.60
2023-04-18T06:41:16.431Z,100227.21
2023-04-18T06:42:21.602Z,100222.76
2023-04-18T06:43:23.430Z,100221.74
2023-04-18T06:44:26.107Z,100223.44
2023-04-18T06:45:30.742Z,100215.66
2023-04-18T06:46:34.229Z,100216.79
2023-04-18T06:47:37.647Z,100230.58
2023-04-18T06:48:39.881Z,100219.17
2023-04-18T06:49:42.648Z,100218.34
2023-04-18T06:50:45.595Z,100223.66
2023-04-18T06:51:49.123Z,100228.55
2023-04-18T06:52:51.502Z,100223.92
2023-04-18T06:53:54.142Z,100223.92
2023-04-18T06:54:56.773Z,100225.36
2023-04-18T06:56:00.200Z,100229.59
2023-04-18T06:57:03.203Z,100227.06
2023-04-18T06:58:05.822Z,100229.27
2023-04-18T06:59:08.461Z,100228.16
2023-04-18T07:00:11.806Z,100229.74
2023-04-18T07:01:14.265Z,100229.92
2023-04-18T07:02:17.136Z,100234.88
2023-04-18T07:03:19.473Z,100231.11
2023-04-18T07:04:21.895Z,100229.38
2023-04-18T07:05:24.404Z,100223.30
2023-04-18T07:06:27.851Z,100231.00
2023-04-18T07:07:31.710Z,100225.97
2023-04-18T07:08:35.576Z,100229.02
2023-04-18T07:09:37.820Z,100235.93
2023-04-18T07:10:40.512Z,100229.86
2023-04-18T07:11:43.350Z,100231.38
2023-04-18T07:12:46.942Z,100232.34
2023-04-18T07:13:50.352Z,100232.92
2023-04-18T07:14:53.245Z,100227.48
2023-04-18T07:15:56.208Z,100236.14
2023-04-18T07:16:58.508Z,100230.55
2023-04-18T07:18:01.177Z,100223.19
2023-04-18T07:19:06.095Z,100233.66
2023-04-18T07:20:12.227Z,100223.83
2023-04-18T07:21:15.191Z,100231.91
2023-04-18T07:22:18.688Z,100226.98
2023-04-18T07:23:21.079Z,100230.86
2023-04-18T07:24:23.300Z,100225.09
2023-04-18T07:25:25.540Z,100231.44
2023-04-18T07:26:29.066Z,100224.12
2023-04-18T07:27:31.115Z,100221.88
2023-04-18T07:28:33.261Z,100225.41
2023-04-18T07:29:35.993Z,100220.75
2023-04-18T07:30:39.020Z,100224.80
2023-04-18T07:31:41.713Z,100216.22
2023-04-18T07:32:44.334Z,100219.16
2023-04-18T07:33:46.432Z,100225.44
2023-04-18T07:34:48.671Z,100223.74
2023-04-18T07:35:52.284Z,100229.88
2023-04-18T07:36:57.301Z,100220.42
2023-04-18T07:38:02.006Z,100221.52
2023-04-18T07:39:05.455Z,100216.49
2023-04-18T07:40:09.362Z,100220.19
2023-04-18T07:41:12.186Z,100224.20
2023-04-18T07:42:14.547Z,100220.73
2023-04-18T07:43:18.109Z,100218.73
2023-04-18T07:44:21.625Z,100222.55
2023-04-18T07:45:24.788Z,100212.59
2023-04-18T07:46:30.796Z,100223.30
2023-04-18T07:47:33.948Z,100217.00
2023-04-18T07:48:36.633Z,100216.61
2023-04-18T07:49:39.173Z,100216.26
2023-04-18T07:50:41.997Z,100216.23
2023-04-18T07:51:44.553Z,100216.23
2023-04-18T07:52:49.487Z,100211.84
2023-04-18T07:53:52.508Z,100215.45
2023-04-18T07:54:56.055Z,100214.15
2023-04-18T07:55:59.408Z,100213.75
2023-04-18T07:57:03.063Z,100214.81
2023-04-18T07:58:06.039Z,100217.20
2023-04-18T07:59:12.156Z,100205.91
2023-04-18T08:00:16.086Z,100212.66
2023-04-18T08:01:20.889Z,100213.30
2023-04-18T08:02:23.186Z,100212.97
2023-04-18T08:03:26.880Z,100212.66
2023-04-18T08:04:30.557Z,100206.19
2023-04-18T08:05:33.457Z,100209.13
2023-04-18T08:06:36.051Z,100203.75
2023-04-18T08:07:38.430Z,100204.53
2023-04-18T08:08:41.754Z,100207.91
2023-04-18T08:09:55.536Z,100201.16
2023-04-18T08:10:58.264Z,100202.08
2023-04-18T08:12:00.726Z,100199.94
2023-04-18T08:13:03.268Z,100210.39
2023-04-18T08:14:06.258Z,100188.52
2023-04-18T08:15:09.271Z,100188.52
2023-04-18T08:16:11.896Z,100202.92
2023-04-18T08:17:14.583Z,100197.75
2023-04-18T08:18:16.946Z,100196.85
2023-04-18T08:19:19.773Z,100198.95
2023-04-18T08:20:23.090Z,100197.59
2023-04-18T08:21:26.680Z,100194.92
2023-04-18T08:22:29.148Z,100196.77
2023-04-18T08:23:31.925Z,100187.06
2023-04-18T08:24:35.573Z,100192.05
2023-04-18T08:25:38.386Z,100199.63
2023-04-18T08:26:40.891Z,100192.55
2023-04-18T08:27:44.735Z,100193.92
2023-04-18T08:28:48.241Z,100189.86
2023-04-18T08:29:50.657Z,100181.60
2023-04-18T08:30:54.530Z,100181.60
2023-04-18T08:31:57.059Z,100188.69
2023-04-18T08:33:00.764Z,100179.91
2023-04-18T08:34:05.070Z,100183.11
2023-04-18T08:35:08.308Z,100184.45
2023-04-18T08:36:11.499Z,100189.34
2023-04-18T08:37:14.383Z,100184.29
2023-04-18T08:38:18.290Z,100184.77
2023-04-18T08:39:21.970Z,100181.80
2023-04-18T08:40:25.340Z,100181.38
2023-04-18T08:41:29.683Z,100187.80
2023-04-18T08:42:32.687Z,100175.09
2023-04-18T08:43:35.326Z,100175.09
2023-04-18T08:44:37.609Z,100184.88
2023-04-18T08:45:42.316Z,100188.76
2023-04-18T08:46:45.600Z,100188.66
2023-04-18T08:47:48.079Z,100188.66
2023-04-18T08:48:51.223Z,100188.48
2023-04-18T08:49:55.079Z,100187.98
2023-04-18T08:50:58.999Z,100187.13
2023-04-18T08:52:04.210Z,100186.30
2023-04-18T08:53:07.302Z,100175.33
2023-04-18T08:54:11.791Z,100181.73
2023-04-18T08:55:15.313Z,100183.67
2023-04-18T08:56:17.466Z,100179.02
2023-04-18T08:57:26.339Z,100181.48
2023-04-18T08:58:31.638Z,100176.06
2023-04-18T08:59:36.918Z,100173.38
2023-04-18T09:00:39.625Z,100181.08
2023-04-18T09:01:56.432Z,100178.21
2023-04-18T09:02:59.238Z,100173.07
2023-04-18T09:04:02.218Z,100175.14
2023-04-18T09:05:13.708Z,100181.48
2023-04-18T09:06:18.554Z,100169.22
2023-04-18T09:07:29.107Z,100168.89
2023-04-18T09:08:32.776Z,100177.09
2023-04-18T09:09:49.570Z,100173.55
2023-04-18T09:10:53.208Z,100175.14
2023-04-18T09:12:10.871Z,100167.54
2023-04-18T09:13:13.709Z,100168.55
2023-04-18T09:14:20.474Z,100167.88
2023-04-18T09:15:26.600Z,100168.45
2023-04-18T09:16:34.925Z,100164.23
2023-04-18T09:17:45.468Z,100161.71
2023-04-18T09:19:12.203Z,100163.87
2023-04-18T09:20:37.003Z,100167.26
2023-04-18T09:21:41.272Z,100163.12
2023-04-18T09:22:49.857Z,100164.14
2023-04-18T09:23:56.128Z,100170.24
2023-04-18T09:24:58.578Z,100168.06
2023-04-18T09:26:01.484Z,100159.77
2023-04-18T09:27:08.469Z,100166.36
2023-04-18T09:28:28.212Z,100164.67
2023-04-18T09:29:49.328Z,100163.81
2023-04-18T09:30:52.835Z,100159.19
2023-04-18T09:32:00.097Z,100168.55
2023-04-18T09:33:04.137Z,100165.26
2023-04-18T09:34:10.116Z,100157.68
2023-04-18T09:35:16.337Z,100161.13
2023-04-18T09:36:24.364Z,100162.23
2023-04-18T09:37:28.492Z,100156.24
2023-04-18T09:38:41.327Z,100162.16
2023-04-18T09:39:44.604Z,100162.47
2023-04-18T09:40:47.452Z,100154.20
2023-04-18T09:42:01.954Z,100157.12
2023-04-18T09:44:30.311Z,100147.79
2023-04-18T09:45:32.697Z,100154.88
2023-04-18T09:46:36.413Z,100155.17
2023-04-18T09:47:39.767Z,100153.11
2023-04-18T09:48:42.115Z,100151.58
2023-04-18T09:49:44.741Z,100159.08
2023-04-18T09:50:49.029Z,100154.77
2023-04-18T09:51:53.621Z,100158.37
2023-04-18T09:52:58.452Z,100146.14
2023-04-18T09:54:03.948Z,100148.89
2023-04-18T09:55:09.280Z,100150.75
2023-04-18T09:56:19.173Z,100151.88
2023-04-18T09:57:24.467Z,100153.94
2023-04-18T09:58:30.433Z,100149.28
2023-04-18T09:59:39.736Z,100147.02
2023-04-18T10:02:14.424Z,100144.20
2023-04-18T10:03:22.502Z,100149.98
2023-04-18T10:04:26.937Z,100157.22
2023-04-18T10:05:33.938Z,100148.91
2023-04-18T10:06:42.022Z,100159.41
2023-04-18T10:07:46.837Z,100153.20
2023-04-18T10:08:54.761Z,100146.46
2023-04-18T10:09:57.151Z,100147.02
2023-04-18T10:10:59.581Z,100148.17
2023-04-18T10:12:03.028Z,100147.02
2023-04-18T10:13:08.880Z,100141.62
2023-04-18T10:14:16.295Z,100149.48
2023-04-18T10:15:22.833Z,100145.67
2023-04-18T10:16:26.920Z,100139.13
2023-04-18T10:17:32.515Z,100136.67
2023-04-18T10:18:35.980Z,100139.56
2023-04-18T10:19:45.775Z,100138.27
2023-04-18T10:20:49.047Z,100138.73
2023-04-18T10:21:56.763Z,100136.95
2023-04-18T10:23:00.359Z,100144.45
2023-04-18T10:24:02.800Z,100136.59
2023-04-18T10:25:06.288Z,100141.77
2023-04-18T10:26:12.987Z,100138.80
2023-04-18T10:27:18.254Z,100139.09
2023-04-18T10:28:21.239Z,100137.66
2023-04-18T10:29:27.250Z,100137.14
2023-04-18T10:30:44.222Z,100142.47
2023-04-18T10:31:47.308Z,100135.95
2023-04-18T10:32:51.388Z,100134.19
2023-04-18T10:35:03.496Z,100141.28
2023-04-18T10:36:12.667Z,100137.74
2023-04-18T10:37:17.557Z,100131.91
2023-04-18T10:38:23.428Z,100142.05
2023-04-18T10:39:29.360Z,100135.79
2023-04-18T10:40:34.782Z,100143.11
2023-04-18T10:41:40.711Z,100143.64
2023-04-18T10:42:50.051Z,100139.17
2023-04-18T10:44:10.728Z,100141.12
2023-04-18T10:45:21.867Z,100128.61
2023-04-18T10:46:32.361Z,100133.78
2023-04-18T10:47:30.938Z,100133.84
2023-04-18T10:49:40.030Z,100138.05
2023-04-18T10:51:17.702Z,100131.98
2023-04-18T10:52:20.061Z,100125.98
2023-04-18T10:53:22.452Z,100128.12
2023-04-18T10:54:45.199Z,100135.44
2023-04-18T10:55:51.568Z,100138.48
2023-04-18T10:56:55.963Z,100138.16
2023-04-18T10:57:59.030Z,100133.95
2023-04-18T10:59:02.966Z,100139.70
2023-04-18T11:00:10.397Z,100130.91
2023-04-18T11:01:15.710Z,100137.14
2023-04-18T11:02:31.645Z,100134.94
2023-04-18T11:03:35.241Z,100132.25
2023-04-18T11:04:41.153Z,100132.09
2023-04-18T11:05:44.174Z,100126.19
2023-04-18T11:06:57.244Z,100131.23
2023-04-18T11:08:00.660Z,100134.80
2023-04-18T11:10:25.105Z,100127.27
2023-04-18T11:11:27.740Z,100136.66
2023-04-18T11:12:34.219Z,100131.42
2023-04-18T11:13:55.941Z,100131.42
2023-04-18T11:15:02.048Z,100126.09
2023-04-18T11:16:04.922Z,100133.59
2023-04-18T11:17:35.212Z,100127.19
2023-04-18T11:18:41.447Z,100121.28
2023-04-18T11:19:44.341Z,100123.30
2023-04-18T11:20:49.711Z,100131.42
2023-04-18T11:21:52.614Z,100130.47
2023-04-18T11:22:58.091Z,100132.09
2023-04-18T11:24:01.176Z,100130.22
2023-04-18T11:25:10.501Z,100122.30
2023-04-18T11:26:15.497Z,100126.58
2023-04-18T11:27:17.862Z,100126.92
2023-04-18T11:28:22.862Z,100136.71
2023-04-18T11:29:25.849Z,100130.55
2023-04-18T11:30:31.764Z,100127.69
2023-04-18T11:31:34.430Z,100125.55
2023-04-18T11:32:36.906Z,100125.64
2023-04-18T11:33:41.766Z,100122.94
2023-04-18T11:34:44.985Z,100128.50
2023-04-18T11:35:47.336Z,100120.89
2023-04-18T11:36:52.625Z,100114.05
2023-04-18T11:37:55.545Z,100116.23
2023-04-18T11:38:57.992Z,100114.80
2023-04-18T11:40:00.315Z,100109.58
2023-04-18T11:41:02.746Z,100104.48
2023-04-18T11:42:06.422Z,100104.48
2023-04-18T11:43:08.975Z,100110.55
2023-04-18T11:44:12.296Z,100110.22
2023-04-18T11:45:15.727Z,100111.92
2023-04-18T11:46:18.172Z,100114.48
2023-04-18T11:47:30.202Z,100102.83
2023-04-18T11:48:37.743Z,100102.83
2023-04-18T11:49:40.200Z,100116.52
2023-04-18T11:50:43.739Z,100111.11
2023-04-18T11:51:47.436Z,100111.30
2023-04-18T11:52:52.247Z,100111.59
2023-04-18T11:53:59.464Z,100110.85
2023-04-18T11:55:17.117Z,100108.23
2023-04-18T11:56:19.397Z,100113.47
2023-04-18T11:57:27.649Z,100113.52
2023-04-18T11:58:33.074Z,100109.16
2023-04-18T11:59:35.764Z,100110.61
2023-04-18T12:00:43.168Z,100105.30
2023-04-18T12:01:45.589Z,100102.77
2023-04-18T12:02:50.609Z,100101.07
2023-04-18T12:04:02.310Z,100103.33
2023-04-18T12:05:06.376Z,100100.03
2023-04-18T12:06:10.579Z,100107.78
2023-04-18T12:07:12.983Z,100099.02
2023-04-18T12:08:20.390Z,100097.33
2023-04-18T12:09:24.468Z,100102.47
2023-04-18T12:10:29.227Z,100099.77
2023-04-18T12:11:31.796Z,100108.38
2023-04-18T12:12:35.469Z,100103.92
2023-04-18T12:13:38.139Z,100107.78
2023-04-18T12:14:40.673Z,100112.09
2023-04-18T12:15:45.616Z,100106.36
2023-04-18T12:16:51.351Z,100110.34
2023-04-18T12:18:00.388Z,100100.30
2023-04-18T12:19:03.401Z,100102.08
2023-04-18T12:20:09.707Z,100111.05